sensor_id;sensor_type;location;lat;lon;timestamp;temperature;humidity
54485;DHT22;45006;56.958;24.166;2023-07-16T00:01:51;25.30;74.20
54485;DHT22;45006;56.958;24.166;2023-07-16T00:04:18;25.40;74.30
54485;DHT22;45006;56.958;24.166;2023-07-16T00:06:47;25.40;74.40
54485;DHT22;45006;56.958;24.166;2023-07-16T00:09:15;25.40;74.20
54485;DHT22;45006;56.958;24.166;2023-07-16T00:11:43;25.40;74.40
54485;DHT22;45006;56.958;24.166;2023-07-16T00:14:11;25.30;74.40
54485;DHT22;45006;56.958;24.166;2023-07-16T00:16:41;25.30;74.40
54485;DHT22;45006;56.958;24.166;2023-07-16T00:19:11;25.30;74.40
54485;DHT22;45006;56.958;24.166;2023-07-16T00:21:40;25.30;74.40
54485;DHT22;45006;56.958;24.166;2023-07-16T00:24:07;25.30;74.40
54485;DHT22;45006;56.958;24.166;2023-07-16T00:26:34;25.30;74.40
54485;DHT22;45006;56.958;24.166;2023-07-16T00:29:01;25.30;74.40
54485;DHT22;45006;56.958;24.166;2023-07-16T00:31:29;25.30;74.40
54485;DHT22;45006;56.958;24.166;2023-07-16T00:33:57;25.30;74.40
54485;DHT22;45006;56.958;24.166;2023-07-16T00:36:26;25.30;74.40
54485;DHT22;45006;56.958;24.166;2023-07-16T00:38:53;25.30;74.40
54485;DHT22;45006;56.958;24.166;2023-07-16T00:41:21;25.30;74.40
54485;DHT22;45006;56.958;24.166;2023-07-16T00:43:48;25.30;74.40
54485;DHT22;45006;56.958;24.166;2023-07-16T00:46:16;25.30;74.40
54485;DHT22;45006;56.958;24.166;2023-07-16T00:48:45;25.30;74.50
54485;DHT22;45006;56.958;24.166;2023-07-16T00:51:12;25.30;74.40
54485;DHT22;45006;56.958;24.166;2023-07-16T00:53:41;25.30;74.40
54485;DHT22;45006;56.958;24.166;2023-07-16T00:56:10;25.30;74.50
54485;DHT22;45006;56.958;24.166;2023-07-16T00:58:37;25.30;74.60
54485;DHT22;45006;56.958;24.166;2023-07-16T01:01:04;25.30;74.60
54485;DHT22;45006;56.958;24.166;2023-07-16T01:03:31;25.30;74.60
54485;DHT22;45006;56.958;24.166;2023-07-16T01:06:14;25.30;74.60
54485;DHT22;45006;56.958;24.166;2023-07-16T01:09:15;25.30;74.60
54485;DHT22;45006;56.958;24.166;2023-07-16T01:11:44;25.30;74.60
54485;DHT22;45006;56.958;24.166;2023-07-16T01:14:13;25.30;74.60
54485;DHT22;45006;56.958;24.166;2023-07-16T01:16:41;25.30;74.60
54485;DHT22;45006;56.958;24.166;2023-07-16T01:19:10;25.30;74.50
54485;DHT22;45006;56.958;24.166;2023-07-16T01:27:28;25.30;74.60
54485;DHT22;45006;56.958;24.166;2023-07-16T01:30:04;25.30;74.60
54485;DHT22;45006;56.958;24.166;2023-07-16T01:32:33;25.30;74.60
54485;DHT22;45006;56.958;24.166;2023-07-16T01:35:02;25.30;74.60
54485;DHT22;45006;56.958;24.166;2023-07-16T01:37:33;25.30;74.60
54485;DHT22;45006;56.958;24.166;2023-07-16T01:40:03;25.30;74.60
54485;DHT22;45006;56.958;24.166;2023-07-16T01:42:32;25.20;74.60
54485;DHT22;45006;56.958;24.166;2023-07-16T01:44:59;25.30;74.70
54485;DHT22;45006;56.958;24.166;2023-07-16T01:50:19;25.30;74.70
54485;DHT22;45006;56.958;24.166;2023-07-16T01:52:45;25.30;74.70
54485;DHT22;45006;56.958;24.166;2023-07-16T01:55:13;25.30;74.60
54485;DHT22;45006;56.958;24.166;2023-07-16T01:57:39;25.30;74.60
54485;DHT22;45006;56.958;24.166;2023-07-16T02:00:07;25.30;74.60
54485;DHT22;45006;56.958;24.166;2023-07-16T02:02:35;25.20;74.40
54485;DHT22;45006;56.958;24.166;2023-07-16T02:05:02;25.30;74.50
54485;DHT22;45006;56.958;24.166;2023-07-16T02:07:29;25.20;74.30
54485;DHT22;45006;56.958;24.166;2023-07-16T02:09:56;25.30;74.30
54485;DHT22;45006;56.958;24.166;2023-07-16T02:12:25;25.30;74.30
54485;DHT22;45006;56.958;24.166;2023-07-16T02:14:52;25.20;74.30
54485;DHT22;45006;56.958;24.166;2023-07-16T02:17:19;25.30;74.30
54485;DHT22;45006;56.958;24.166;2023-07-16T02:19:48;25.20;74.20
54485;DHT22;45006;56.958;24.166;2023-07-16T02:22:15;25.30;74.20
54485;DHT22;45006;56.958;24.166;2023-07-16T02:24:42;25.30;74.30
54485;DHT22;45006;56.958;24.166;2023-07-16T02:27:09;25.30;74.30
54485;DHT22;45006;56.958;24.166;2023-07-16T02:29:37;25.30;74.40
54485;DHT22;45006;56.958;24.166;2023-07-16T02:32:04;25.30;74.30
54485;DHT22;45006;56.958;24.166;2023-07-16T02:34:31;25.30;74.30
54485;DHT22;45006;56.958;24.166;2023-07-16T02:36:59;25.30;74.30
54485;DHT22;45006;56.958;24.166;2023-07-16T02:39:27;25.30;74.20
54485;DHT22;45006;56.958;24.166;2023-07-16T02:41:54;25.30;74.30
54485;DHT22;45006;56.958;24.166;2023-07-16T02:44:21;25.30;74.20
54485;DHT22;45006;56.958;24.166;2023-07-16T02:46:48;25.30;74.20
54485;DHT22;45006;56.958;24.166;2023-07-16T02:49:15;25.30;74.10
54485;DHT22;45006;56.958;24.166;2023-07-16T02:51:43;25.30;74.10
54485;DHT22;45006;56.958;24.166;2023-07-16T02:54:10;25.20;74.00
54485;DHT22;45006;56.958;24.166;2023-07-16T02:56:37;25.30;74.00
54485;DHT22;45006;56.958;24.166;2023-07-16T02:59:05;25.30;74.00
54485;DHT22;45006;56.958;24.166;2023-07-16T03:01:32;25.20;73.90
54485;DHT22;45006;56.958;24.166;2023-07-16T03:03:59;25.30;74.00
54485;DHT22;45006;56.958;24.166;2023-07-16T03:06:26;25.30;73.90
54485;DHT22;45006;56.958;24.166;2023-07-16T03:08:53;25.30;73.90
54485;DHT22;45006;56.958;24.166;2023-07-16T03:11:20;25.30;73.90
54485;DHT22;45006;56.958;24.166;2023-07-16T03:13:48;25.30;73.80
54485;DHT22;45006;56.958;24.166;2023-07-16T03:16:16;25.30;73.80
54485;DHT22;45006;56.958;24.166;2023-07-16T03:18:44;25.30;73.70
54485;DHT22;45006;56.958;24.166;2023-07-16T03:21:13;25.30;73.70
54485;DHT22;45006;56.958;24.166;2023-07-16T03:23:42;25.30;73.60
54485;DHT22;45006;56.958;24.166;2023-07-16T03:26:09;25.30;73.90
54485;DHT22;45006;56.958;24.166;2023-07-16T03:28:38;25.30;73.60
54485;DHT22;45006;56.958;24.166;2023-07-16T03:31:04;25.30;73.50
54485;DHT22;45006;56.958;24.166;2023-07-16T03:33:31;25.30;73.60
54485;DHT22;45006;56.958;24.166;2023-07-16T03:36:00;25.30;73.50
54485;DHT22;45006;56.958;24.166;2023-07-16T03:38:28;25.30;73.60
54485;DHT22;45006;56.958;24.166;2023-07-16T03:40:55;25.30;73.50
54485;DHT22;45006;56.958;24.166;2023-07-16T03:43:22;25.30;73.50
54485;DHT22;45006;56.958;24.166;2023-07-16T03:45:49;25.30;73.70
54485;DHT22;45006;56.958;24.166;2023-07-16T03:48:16;25.30;73.40
54485;DHT22;45006;56.958;24.166;2023-07-16T03:50:43;25.30;73.60
54485;DHT22;45006;56.958;24.166;2023-07-16T03:53:13;25.30;73.60
54485;DHT22;45006;56.958;24.166;2023-07-16T03:55:40;25.30;73.50
54485;DHT22;45006;56.958;24.166;2023-07-16T03:58:07;25.30;73.50
54485;DHT22;45006;56.958;24.166;2023-07-16T04:00:34;25.30;73.50
54485;DHT22;45006;56.958;24.166;2023-07-16T04:03:03;25.40;73.60
54485;DHT22;45006;56.958;24.166;2023-07-16T04:05:31;25.30;73.50
54485;DHT22;45006;56.958;24.166;2023-07-16T04:07:58;25.40;73.60
54485;DHT22;45006;56.958;24.166;2023-07-16T04:10:25;25.30;73.10
54485;DHT22;45006;56.958;24.166;2023-07-16T04:12:52;25.40;73.50
54485;DHT22;45006;56.958;24.166;2023-07-16T04:15:19;25.40;73.20
54485;DHT22;45006;56.958;24.166;2023-07-16T04:17:46;25.40;73.40
54485;DHT22;45006;56.958;24.166;2023-07-16T04:20:13;25.40;73.40
54485;DHT22;45006;56.958;24.166;2023-07-16T04:22:40;25.40;73.60
54485;DHT22;45006;56.958;24.166;2023-07-16T04:25:08;25.40;73.40
54485;DHT22;45006;56.958;24.166;2023-07-16T04:27:35;25.40;73.40
54485;DHT22;45006;56.958;24.166;2023-07-16T04:30:03;25.40;73.40
54485;DHT22;45006;56.958;24.166;2023-07-16T04:32:30;25.40;73.40
54485;DHT22;45006;56.958;24.166;2023-07-16T04:34:57;25.40;73.40
54485;DHT22;45006;56.958;24.166;2023-07-16T04:37:25;25.40;73.30
54485;DHT22;45006;56.958;24.166;2023-07-16T04:39:52;25.40;73.00
54485;DHT22;45006;56.958;24.166;2023-07-16T04:42:19;25.40;73.10
54485;DHT22;45006;56.958;24.166;2023-07-16T04:44:48;25.50;73.30
54485;DHT22;45006;56.958;24.166;2023-07-16T04:47:15;25.50;73.10
54485;DHT22;45006;56.958;24.166;2023-07-16T04:49:42;25.50;73.40
54485;DHT22;45006;56.958;24.166;2023-07-16T04:52:09;25.50;73.40
54485;DHT22;45006;56.958;24.166;2023-07-16T04:54:37;25.50;73.60
54485;DHT22;45006;56.958;24.166;2023-07-16T04:57:06;25.50;73.70
54485;DHT22;45006;56.958;24.166;2023-07-16T04:59:34;25.50;73.70
54485;DHT22;45006;56.958;24.166;2023-07-16T05:02:04;25.50;73.70
54485;DHT22;45006;56.958;24.166;2023-07-16T05:04:33;25.60;73.80
54485;DHT22;45006;56.958;24.166;2023-07-16T05:07:01;25.50;73.80
54485;DHT22;45006;56.958;24.166;2023-07-16T05:09:29;25.60;73.70
54485;DHT22;45006;56.958;24.166;2023-07-16T05:11:56;25.60;73.70
54485;DHT22;45006;56.958;24.166;2023-07-16T05:14:26;25.60;73.50
54485;DHT22;45006;56.958;24.166;2023-07-16T05:16:55;25.70;73.60
54485;DHT22;45006;56.958;24.166;2023-07-16T05:19:22;25.70;73.30
54485;DHT22;45006;56.958;24.166;2023-07-16T05:21:49;25.80;73.70
54485;DHT22;45006;56.958;24.166;2023-07-16T05:24:17;25.80;73.30
54485;DHT22;45006;56.958;24.166;2023-07-16T05:26:44;25.90;73.20
54485;DHT22;45006;56.958;24.166;2023-07-16T05:29:11;25.90;73.00
54485;DHT22;45006;56.958;24.166;2023-07-16T05:31:38;26.00;73.00
54485;DHT22;45006;56.958;24.166;2023-07-16T05:34:05;26.10;72.70
54485;DHT22;45006;56.958;24.166;2023-07-16T05:36:32;26.10;72.70
54485;DHT22;45006;56.958;24.166;2023-07-16T05:38:59;26.20;72.50
54485;DHT22;45006;56.958;24.166;2023-07-16T05:41:25;26.40;72.10
54485;DHT22;45006;56.958;24.166;2023-07-16T05:43:53;26.50;72.00
54485;DHT22;45006;56.958;24.166;2023-07-16T05:46:21;26.50;71.70
54485;DHT22;45006;56.958;24.166;2023-07-16T05:48:48;26.60;71.30
54485;DHT22;45006;56.958;24.166;2023-07-16T05:51:15;26.70;71.30
54485;DHT22;45006;56.958;24.166;2023-07-16T05:53:42;26.80;70.70
54485;DHT22;45006;56.958;24.166;2023-07-16T05:56:09;26.90;70.70
54485;DHT22;45006;56.958;24.166;2023-07-16T05:58:36;26.90;70.50
54485;DHT22;45006;56.958;24.166;2023-07-16T06:01:04;27.00;70.30
54485;DHT22;45006;56.958;24.166;2023-07-16T06:03:31;27.10;70.40
54485;DHT22;45006;56.958;24.166;2023-07-16T06:05:58;27.10;70.70
54485;DHT22;45006;56.958;24.166;2023-07-16T06:08:26;27.00;67.20
54485;DHT22;45006;56.958;24.166;2023-07-16T06:10:53;26.90;67.10
54485;DHT22;45006;56.958;24.166;2023-07-16T06:13:20;26.90;67.10
54485;DHT22;45006;56.958;24.166;2023-07-16T06:15:47;26.90;67.10
54485;DHT22;45006;56.958;24.166;2023-07-16T06:18:14;26.90;66.90
54485;DHT22;45006;56.958;24.166;2023-07-16T06:20:46;26.90;66.90
54485;DHT22;45006;56.958;24.166;2023-07-16T06:23:14;26.90;66.80
54485;DHT22;45006;56.958;24.166;2023-07-16T06:25:43;26.90;67.10
54485;DHT22;45006;56.958;24.166;2023-07-16T06:28:16;26.90;66.90
54485;DHT22;45006;56.958;24.166;2023-07-16T06:30:43;26.90;66.50
54485;DHT22;45006;56.958;24.166;2023-07-16T06:33:10;26.90;66.90
54485;DHT22;45006;56.958;24.166;2023-07-16T06:35:37;26.90;66.90
54485;DHT22;45006;56.958;24.166;2023-07-16T06:38:05;26.90;66.80
54485;DHT22;45006;56.958;24.166;2023-07-16T06:40:32;26.90;66.70
54485;DHT22;45006;56.958;24.166;2023-07-16T06:42:59;26.80;67.00
54485;DHT22;45006;56.958;24.166;2023-07-16T06:45:28;26.80;67.00
54485;DHT22;45006;56.958;24.166;2023-07-16T06:47:54;26.80;66.70
54485;DHT22;45006;56.958;24.166;2023-07-16T06:50:23;26.80;67.00
54485;DHT22;45006;56.958;24.166;2023-07-16T06:52:50;26.80;67.00
54485;DHT22;45006;56.958;24.166;2023-07-16T06:55:17;26.80;67.00
54485;DHT22;45006;56.958;24.166;2023-07-16T06:57:44;26.70;67.40
54485;DHT22;45006;56.958;24.166;2023-07-16T07:00:11;26.70;67.40
54485;DHT22;45006;56.958;24.166;2023-07-16T07:02:38;26.70;67.20
54485;DHT22;45006;56.958;24.166;2023-07-16T07:05:05;26.70;67.00
54485;DHT22;45006;56.958;24.166;2023-07-16T07:07:33;26.70;67.00
54485;DHT22;45006;56.958;24.166;2023-07-16T07:10:00;26.70;67.10
54485;DHT22;45006;56.958;24.166;2023-07-16T07:12:27;26.60;67.20
54485;DHT22;45006;56.958;24.166;2023-07-16T07:14:54;26.60;67.20
54485;DHT22;45006;56.958;24.166;2023-07-16T07:17:22;26.60;67.50
54485;DHT22;45006;56.958;24.166;2023-07-16T07:19:49;26.60;67.50
54485;DHT22;45006;56.958;24.166;2023-07-16T07:22:16;26.60;67.50
54485;DHT22;45006;56.958;24.166;2023-07-16T07:24:45;26.50;67.50
54485;DHT22;45006;56.958;24.166;2023-07-16T07:27:12;26.50;67.60
54485;DHT22;45006;56.958;24.166;2023-07-16T07:29:41;26.50;67.80
54485;DHT22;45006;56.958;24.166;2023-07-16T07:32:09;26.50;67.90
54485;DHT22;45006;56.958;24.166;2023-07-16T07:34:36;26.50;67.60
54485;DHT22;45006;56.958;24.166;2023-07-16T07:37:03;26.50;68.00
54485;DHT22;45006;56.958;24.166;2023-07-16T07:39:30;26.50;68.20
54485;DHT22;45006;56.958;24.166;2023-07-16T07:41:57;26.50;68.10
54485;DHT22;45006;56.958;24.166;2023-07-16T07:44:26;26.40;68.00
54485;DHT22;45006;56.958;24.166;2023-07-16T07:46:53;26.40;68.10
54485;DHT22;45006;56.958;24.166;2023-07-16T07:49:20;26.40;68.20
54485;DHT22;45006;56.958;24.166;2023-07-16T07:51:47;26.40;68.20
54485;DHT22;45006;56.958;24.166;2023-07-16T07:54:16;26.40;68.30
54485;DHT22;45006;56.958;24.166;2023-07-16T07:56:45;26.40;68.40
54485;DHT22;45006;56.958;24.166;2023-07-16T07:59:12;26.40;68.30
54485;DHT22;45006;56.958;24.166;2023-07-16T08:01:39;26.30;68.10
54485;DHT22;45006;56.958;24.166;2023-07-16T08:04:06;26.30;67.80
54485;DHT22;45006;56.958;24.166;2023-07-16T08:06:34;26.40;67.00
54485;DHT22;45006;56.958;24.166;2023-07-16T08:09:01;26.30;65.40
54485;DHT22;45006;56.958;24.166;2023-07-16T08:11:28;26.30;65.40
54485;DHT22;45006;56.958;24.166;2023-07-16T08:13:55;26.30;65.70
54485;DHT22;45006;56.958;24.166;2023-07-16T08:16:23;26.30;66.30
54485;DHT22;45006;56.958;24.166;2023-07-16T08:18:50;26.30;66.80
54485;DHT22;45006;56.958;24.166;2023-07-16T08:21:17;26.30;66.60
54485;DHT22;45006;56.958;24.166;2023-07-16T08:23:48;26.30;66.90
54485;DHT22;45006;56.958;24.166;2023-07-16T08:26:16;26.30;67.20
54485;DHT22;45006;56.958;24.166;2023-07-16T08:28:44;26.30;67.40
54485;DHT22;45006;56.958;24.166;2023-07-16T08:31:12;26.30;67.40
54485;DHT22;45006;56.958;24.166;2023-07-16T08:33:40;26.30;67.60
54485;DHT22;45006;56.958;24.166;2023-07-16T08:36:07;26.20;67.60
54485;DHT22;45006;56.958;24.166;2023-07-16T08:38:34;26.20;67.70
54485;DHT22;45006;56.958;24.166;2023-07-16T08:41:01;26.20;67.80
54485;DHT22;45006;56.958;24.166;2023-07-16T08:43:33;26.20;67.70
54485;DHT22;45006;56.958;24.166;2023-07-16T08:46:03;26.20;68.00
54485;DHT22;45006;56.958;24.166;2023-07-16T08:48:31;26.20;68.10
54485;DHT22;45006;56.958;24.166;2023-07-16T08:50:59;26.20;68.60
54485;DHT22;45006;56.958;24.166;2023-07-16T08:53:30;26.20;68.20
54485;DHT22;45006;56.958;24.166;2023-07-16T08:55:57;26.30;68.30
54485;DHT22;45006;56.958;24.166;2023-07-16T08:58:24;26.20;68.20
54485;DHT22;45006;56.958;24.166;2023-07-16T09:00:51;26.20;68.20
54485;DHT22;45006;56.958;24.166;2023-07-16T09:03:19;26.20;68.40
54485;DHT22;45006;56.958;24.166;2023-07-16T09:05:47;26.20;68.40
54485;DHT22;45006;56.958;24.166;2023-07-16T09:08:15;26.20;68.50
54485;DHT22;45006;56.958;24.166;2023-07-16T09:10:43;26.20;68.50
54485;DHT22;45006;56.958;24.166;2023-07-16T09:13:10;26.20;68.40
54485;DHT22;45006;56.958;24.166;2023-07-16T09:15:37;26.20;68.40
54485;DHT22;45006;56.958;24.166;2023-07-16T09:18:06;26.20;68.30
54485;DHT22;45006;56.958;24.166;2023-07-16T09:23:00;26.40;92.70
54485;DHT22;45006;56.958;24.166;2023-07-16T09:25:31;26.50;93.10
54485;DHT22;45006;56.958;24.166;2023-07-16T09:28:02;26.60;94.60
54485;DHT22;45006;56.958;24.166;2023-07-16T09:30:35;26.50;91.80
54485;DHT22;45006;56.958;24.166;2023-07-16T09:33:14;26.50;91.90
54485;DHT22;45006;56.958;24.166;2023-07-16T09:35:41;26.40;92.00
54485;DHT22;45006;56.958;24.166;2023-07-16T09:38:09;26.40;90.80
54485;DHT22;45006;56.958;24.166;2023-07-16T09:40:40;26.40;90.30
54485;DHT22;45006;56.958;24.166;2023-07-16T09:43:10;26.40;83.00
54485;DHT22;45006;56.958;24.166;2023-07-16T09:45:38;26.40;80.70
54485;DHT22;45006;56.958;24.166;2023-07-16T09:48:06;26.40;79.10
54485;DHT22;45006;56.958;24.166;2023-07-16T09:50:34;26.30;78.90
54485;DHT22;45006;56.958;24.166;2023-07-16T09:53:04;26.30;78.10
54485;DHT22;45006;56.958;24.166;2023-07-16T09:55:33;26.30;75.40
54485;DHT22;45006;56.958;24.166;2023-07-16T09:58:09;26.30;73.40
54485;DHT22;45006;56.958;24.166;2023-07-16T10:00:37;26.30;73.40
54485;DHT22;45006;56.958;24.166;2023-07-16T10:03:07;26.30;73.30
54485;DHT22;45006;56.958;24.166;2023-07-16T10:05:38;26.30;73.20
54485;DHT22;45006;56.958;24.166;2023-07-16T10:08:16;26.30;73.10
54485;DHT22;45006;56.958;24.166;2023-07-16T10:10:47;26.30;73.60
54485;DHT22;45006;56.958;24.166;2023-07-16T10:13:22;26.30;73.70
54485;DHT22;45006;56.958;24.166;2023-07-16T10:15:57;26.30;73.90
54485;DHT22;45006;56.958;24.166;2023-07-16T10:18:29;26.30;74.70
54485;DHT22;45006;56.958;24.166;2023-07-16T10:21:06;26.30;74.40
54485;DHT22;45006;56.958;24.166;2023-07-16T10:23:40;26.30;74.30
54485;DHT22;45006;56.958;24.166;2023-07-16T10:26:08;26.30;74.50
54485;DHT22;45006;56.958;24.166;2023-07-16T10:28:40;26.30;73.80
54485;DHT22;45006;56.958;24.166;2023-07-16T10:31:20;26.30;73.50
54485;DHT22;45006;56.958;24.166;2023-07-16T10:34:07;26.30;73.50
54485;DHT22;45006;56.958;24.166;2023-07-16T10:39:20;26.30;73.30
54485;DHT22;45006;56.958;24.166;2023-07-16T10:41:49;26.30;74.00
54485;DHT22;45006;56.958;24.166;2023-07-16T10:44:16;26.30;74.80
54485;DHT22;45006;56.958;24.166;2023-07-16T10:46:43;26.30;74.70
54485;DHT22;45006;56.958;24.166;2023-07-16T10:49:10;26.20;74.50
54485;DHT22;45006;56.958;24.166;2023-07-16T10:51:37;26.20;74.80
54485;DHT22;45006;56.958;24.166;2023-07-16T10:54:04;26.20;75.50
54485;DHT22;45006;56.958;24.166;2023-07-16T10:56:41;26.20;75.30
54485;DHT22;45006;56.958;24.166;2023-07-16T11:04:11;26.20;76.50
54485;DHT22;45006;56.958;24.166;2023-07-16T11:06:39;26.20;75.00
54485;DHT22;45006;56.958;24.166;2023-07-16T11:09:09;26.20;75.20
54485;DHT22;45006;56.958;24.166;2023-07-16T11:11:37;26.20;75.30
54485;DHT22;45006;56.958;24.166;2023-07-16T11:14:08;26.20;75.00
54485;DHT22;45006;56.958;24.166;2023-07-16T11:16:37;26.20;75.10
54485;DHT22;45006;56.958;24.166;2023-07-16T11:19:05;26.20;75.10
54485;DHT22;45006;56.958;24.166;2023-07-16T11:21:33;26.20;75.80
54485;DHT22;45006;56.958;24.166;2023-07-16T11:24:17;26.20;76.10
54485;DHT22;45006;56.958;24.166;2023-07-16T11:26:51;26.20;76.40
54485;DHT22;45006;56.958;24.166;2023-07-16T11:32:05;26.30;75.40
54485;DHT22;45006;56.958;24.166;2023-07-16T11:34:33;26.20;76.00
54485;DHT22;45006;56.958;24.166;2023-07-16T11:37:07;26.20;75.50
54485;DHT22;45006;56.958;24.166;2023-07-16T11:39:35;26.30;76.40
54485;DHT22;45006;56.958;24.166;2023-07-16T11:42:03;26.20;75.30
54485;DHT22;45006;56.958;24.166;2023-07-16T11:44:34;26.20;75.90
54485;DHT22;45006;56.958;24.166;2023-07-16T11:57:54;26.20;74.90
54485;DHT22;45006;56.958;24.166;2023-07-16T12:00:23;26.20;75.50
54485;DHT22;45006;56.958;24.166;2023-07-16T12:02:50;26.20;75.60
54485;DHT22;45006;56.958;24.166;2023-07-16T12:05:20;26.20;76.00
54485;DHT22;45006;56.958;24.166;2023-07-16T12:07:59;26.20;75.90
54485;DHT22;45006;56.958;24.166;2023-07-16T12:10:27;26.20;76.30
54485;DHT22;45006;56.958;24.166;2023-07-16T12:12:54;26.20;76.10
54485;DHT22;45006;56.958;24.166;2023-07-16T12:15:21;26.20;75.10
54485;DHT22;45006;56.958;24.166;2023-07-16T12:18:22;26.20;75.50
54485;DHT22;45006;56.958;24.166;2023-07-16T12:20:49;26.20;76.40
54485;DHT22;45006;56.958;24.166;2023-07-16T12:23:16;26.20;75.90
54485;DHT22;45006;56.958;24.166;2023-07-16T12:25:43;26.20;75.70
54485;DHT22;45006;56.958;24.166;2023-07-16T12:28:10;26.20;76.60
54485;DHT22;45006;56.958;24.166;2023-07-16T12:30:40;26.20;75.70
54485;DHT22;45006;56.958;24.166;2023-07-16T12:33:07;26.20;76.10
54485;DHT22;45006;56.958;24.166;2023-07-16T12:35:34;26.20;76.30
54485;DHT22;45006;56.958;24.166;2023-07-16T12:38:01;26.20;76.30
54485;DHT22;45006;56.958;24.166;2023-07-16T12:40:30;26.10;76.00
54485;DHT22;45006;56.958;24.166;2023-07-16T12:42:57;26.20;75.90
54485;DHT22;45006;56.958;24.166;2023-07-16T12:45:24;26.20;75.70
54485;DHT22;45006;56.958;24.166;2023-07-16T12:47:51;26.20;75.90
54485;DHT22;45006;56.958;24.166;2023-07-16T12:50:18;26.20;76.20
54485;DHT22;45006;56.958;24.166;2023-07-16T12:52:48;26.20;75.70
54485;DHT22;45006;56.958;24.166;2023-07-16T12:55:15;26.20;75.00
54485;DHT22;45006;56.958;24.166;2023-07-16T12:57:42;26.20;75.50
54485;DHT22;45006;56.958;24.166;2023-07-16T13:05:59;26.20;76.00
54485;DHT22;45006;56.958;24.166;2023-07-16T13:08:26;26.20;75.30
54485;DHT22;45006;56.958;24.166;2023-07-16T13:10:53;26.20;75.50
54485;DHT22;45006;56.958;24.166;2023-07-16T13:13:21;26.20;75.50
54485;DHT22;45006;56.958;24.166;2023-07-16T13:15:48;26.20;75.60
54485;DHT22;45006;56.958;24.166;2023-07-16T13:18:15;26.20;75.40
54485;DHT22;45006;56.958;24.166;2023-07-16T13:20:43;26.20;75.80
54485;DHT22;45006;56.958;24.166;2023-07-16T13:23:11;26.20;76.00
54485;DHT22;45006;56.958;24.166;2023-07-16T13:25:39;26.20;75.80
54485;DHT22;45006;56.958;24.166;2023-07-16T13:28:06;26.20;75.00
54485;DHT22;45006;56.958;24.166;2023-07-16T13:30:35;26.20;75.40
54485;DHT22;45006;56.958;24.166;2023-07-16T13:33:02;26.20;75.40
54485;DHT22;45006;56.958;24.166;2023-07-16T13:35:29;26.20;75.70
54485;DHT22;45006;56.958;24.166;2023-07-16T13:37:56;26.20;75.40
54485;DHT22;45006;56.958;24.166;2023-07-16T13:40:23;26.20;74.20
54485;DHT22;45006;56.958;24.166;2023-07-16T13:42:50;26.20;74.80
54485;DHT22;45006;56.958;24.166;2023-07-16T13:45:17;26.20;73.90
54485;DHT22;45006;56.958;24.166;2023-07-16T13:47:44;26.20;75.80
54485;DHT22;45006;56.958;24.166;2023-07-16T13:50:11;26.20;75.50
54485;DHT22;45006;56.958;24.166;2023-07-16T13:52:38;26.20;75.70
54485;DHT22;45006;56.958;24.166;2023-07-16T13:55:06;26.20;75.60
54485;DHT22;45006;56.958;24.166;2023-07-16T14:03:04;26.20;74.60
54485;DHT22;45006;56.958;24.166;2023-07-16T14:05:32;26.20;75.80
54485;DHT22;45006;56.958;24.166;2023-07-16T14:08:06;26.20;73.60
54485;DHT22;45006;56.958;24.166;2023-07-16T14:15:54;26.20;75.40
54485;DHT22;45006;56.958;24.166;2023-07-16T14:18:43;26.10;74.60
54485;DHT22;45006;56.958;24.166;2023-07-16T14:21:10;26.20;75.40
54485;DHT22;45006;56.958;24.166;2023-07-16T14:23:37;26.20;75.00
54485;DHT22;45006;56.958;24.166;2023-07-16T14:26:04;26.20;73.70
54485;DHT22;45006;56.958;24.166;2023-07-16T14:28:31;26.20;75.30
54485;DHT22;45006;56.958;24.166;2023-07-16T14:30:58;26.20;74.40
54485;DHT22;45006;56.958;24.166;2023-07-16T14:33:26;26.20;74.50
54485;DHT22;45006;56.958;24.166;2023-07-16T14:35:54;26.20;74.20
54485;DHT22;45006;56.958;24.166;2023-07-16T14:38:21;26.10;72.30
54485;DHT22;45006;56.958;24.166;2023-07-16T14:40:48;26.20;72.50
54485;DHT22;45006;56.958;24.166;2023-07-16T14:43:18;26.10;72.40
54485;DHT22;45006;56.958;24.166;2023-07-16T14:45:45;26.10;72.40
54485;DHT22;45006;56.958;24.166;2023-07-16T14:48:12;26.10;73.40
54485;DHT22;45006;56.958;24.166;2023-07-16T14:50:40;26.10;72.90
54485;DHT22;45006;56.958;24.166;2023-07-16T14:53:07;26.10;73.10
54485;DHT22;45006;56.958;24.166;2023-07-16T14:55:34;26.10;73.00
54485;DHT22;45006;56.958;24.166;2023-07-16T14:58:01;26.10;73.90
54485;DHT22;45006;56.958;24.166;2023-07-16T15:00:29;26.10;73.90
54485;DHT22;45006;56.958;24.166;2023-07-16T15:02:56;26.10;74.30
54485;DHT22;45006;56.958;24.166;2023-07-16T15:05:23;26.10;73.10
54485;DHT22;45006;56.958;24.166;2023-07-16T15:07:50;26.10;73.50
54485;DHT22;45006;56.958;24.166;2023-07-16T15:15:51;26.10;73.20
54485;DHT22;45006;56.958;24.166;2023-07-16T15:18:19;26.10;73.90
54485;DHT22;45006;56.958;24.166;2023-07-16T15:21:03;26.10;73.40
54485;DHT22;45006;56.958;24.166;2023-07-16T15:23:31;26.10;73.60
54485;DHT22;45006;56.958;24.166;2023-07-16T15:26:04;26.10;74.00
54485;DHT22;45006;56.958;24.166;2023-07-16T15:28:33;26.10;73.80
54485;DHT22;45006;56.958;24.166;2023-07-16T15:31:01;26.10;72.70
54485;DHT22;45006;56.958;24.166;2023-07-16T15:33:29;26.10;72.80
54485;DHT22;45006;56.958;24.166;2023-07-16T15:35:59;26.00;72.60
54485;DHT22;45006;56.958;24.166;2023-07-16T15:38:26;26.00;72.40
54485;DHT22;45006;56.958;24.166;2023-07-16T15:40:53;26.00;72.40
54485;DHT22;45006;56.958;24.166;2023-07-16T15:43:22;26.00;72.10
54485;DHT22;45006;56.958;24.166;2023-07-16T15:45:49;26.00;72.20
54485;DHT22;45006;56.958;24.166;2023-07-16T15:48:16;26.00;72.50
54485;DHT22;45006;56.958;24.166;2023-07-16T15:50:44;26.00;73.20
54485;DHT22;45006;56.958;24.166;2023-07-16T15:53:11;26.00;72.50
54485;DHT22;45006;56.958;24.166;2023-07-16T15:55:40;26.00;71.70
54485;DHT22;45006;56.958;24.166;2023-07-16T15:58:08;26.00;71.90
54485;DHT22;45006;56.958;24.166;2023-07-16T16:00:36;26.00;72.00
54485;DHT22;45006;56.958;24.166;2023-07-16T16:03:03;26.00;72.30
54485;DHT22;45006;56.958;24.166;2023-07-16T16:05:30;26.00;72.20
54485;DHT22;45006;56.958;24.166;2023-07-16T16:10:40;26.00;72.10
54485;DHT22;45006;56.958;24.166;2023-07-16T16:13:07;26.00;72.40
54485;DHT22;45006;56.958;24.166;2023-07-16T16:15:34;26.00;71.90
54485;DHT22;45006;56.958;24.166;2023-07-16T16:18:01;26.00;72.30
54485;DHT22;45006;56.958;24.166;2023-07-16T16:20:30;26.00;72.70